EI29GA EGPF-EIDW
Flight info
| Callsign | EI29GA |
|---|---|
| Flight time | N/A |
| Altitude | 22000 |
| Route | NORBO L186 TRN DCT BLACA DCT NELBO P620 NIMAT NIMAT4L |
| Aircraft | A20N/M-SDE2E3FGHIRWXY/LB1 |
Departure
| Time | 2026-05-06 22:23 |
|---|---|
| Airport | Glasgow Airport (EGPF) |
Arrival
| Time | N/A |
|---|---|
| Airport | Dublin Airport (EIDW) |
| Time | Latitude | Longitude | Altitude | Speed | Heading |
|---|---|---|---|---|---|
| 2026-05-06 21:32 | 55.86632 | -4.43309 | 36 ft | 0 kts | 254° |
| 2026-05-06 22:12 | 55.86632 | -4.43306 | 36 ft | 2 kts | 254° |
| 2026-05-06 22:12 | 55.86636 | -4.43282 | 36 ft | 2 kts | 255° |
| 2026-05-06 22:13 | 55.86640 | -4.43258 | 36 ft | 2 kts | 257° |
| 2026-05-06 22:13 | 55.86642 | -4.43236 | 36 ft | 2 kts | 268° |
| 2026-05-06 22:13 | 55.86642 | -4.43223 | 36 ft | 1 kts | 295° |
| 2026-05-06 22:13 | 55.86638 | -4.43213 | 36 ft | 1 kts | 330° |
| 2026-05-06 22:14 | 55.86627 | -4.43206 | 33 ft | 0 kts | 343° |
| 2026-05-06 22:14 | 55.86637 | -4.43211 | 36 ft | 1 kts | 342° |
| 2026-05-06 22:14 | 55.86643 | -4.43214 | 36 ft | 1 kts | 342° |
| 2026-05-06 22:14 | 55.86646 | -4.43216 | 36 ft | 0 kts | 342° |
| 2026-05-06 22:17 | 55.86675 | -4.43232 | 36 ft | 7 kts | 342° |
| 2026-05-06 22:17 | 55.86729 | -4.43261 | 34 ft | 8 kts | 345° |
| 2026-05-06 22:17 | 55.86786 | -4.43279 | 36 ft | 8 kts | 13° |
| 2026-05-06 22:17 | 55.86816 | -4.43193 | 36 ft | 9 kts | 74° |
| 2026-05-06 22:18 | 55.86835 | -4.43076 | 34 ft | 11 kts | 74° |
| 2026-05-06 22:18 | 55.86865 | -4.42957 | 36 ft | 11 kts | 40° |
| 2026-05-06 22:18 | 55.86936 | -4.42895 | 33 ft | 12 kts | 25° |
| 2026-05-06 22:18 | 55.87017 | -4.42830 | 36 ft | 14 kts | 24° |
| 2026-05-06 22:19 | 55.87109 | -4.42766 | 36 ft | 15 kts | 19° |
| 2026-05-06 22:19 | 55.87209 | -4.42702 | 37 ft | 15 kts | 21° |
| 2026-05-06 22:19 | 55.87311 | -4.42630 | 35 ft | 16 kts | 20° |
| 2026-05-06 22:19 | 55.87415 | -4.42533 | 37 ft | 18 kts | 46° |
| 2026-05-06 22:20 | 55.87497 | -4.42376 | 37 ft | 16 kts | 47° |
| 2026-05-06 22:20 | 55.87565 | -4.42250 | 36 ft | 13 kts | 46° |
| 2026-05-06 22:20 | 55.87630 | -4.42128 | 35 ft | 15 kts | 46° |
| 2026-05-06 22:20 | 55.87701 | -4.41996 | 33 ft | 10 kts | 46° |
| 2026-05-06 22:21 | 55.87748 | -4.41911 | 34 ft | 10 kts | 45° |
| 2026-05-06 22:21 | 55.87807 | -4.41842 | 33 ft | 10 kts | 15° |
| 2026-05-06 22:21 | 55.87866 | -4.41837 | 33 ft | 8 kts | 349° |
| 2026-05-06 22:21 | 55.87918 | -4.41877 | 34 ft | 8 kts | 332° |
| 2026-05-06 22:22 | 55.87937 | -4.41931 | 35 ft | 4 kts | 255° |
| 2026-05-06 22:22 | 55.87925 | -4.41954 | 35 ft | 2 kts | 226° |
| 2026-05-06 22:22 | 55.87902 | -4.41997 | 35 ft | 12 kts | 227° |
| 2026-05-06 22:22 | 55.87687 | -4.42397 | 40 ft | 83 kts | 226° |
| 2026-05-06 22:23 | 55.87100 | -4.43485 | 92 ft | 152 kts | 224° |
| 2026-05-06 22:23 | 55.86316 | -4.44884 | 811 ft | 159 kts | 224° |
| 2026-05-06 22:23 | 55.85567 | -4.46247 | 1862 ft | 152 kts | 222° |
| 2026-05-06 22:23 | 55.84751 | -4.47703 | 2427 ft | 187 kts | 221° |
| 2026-05-06 22:24 | 55.83714 | -4.49531 | 2735 ft | 230 kts | 222° |
| 2026-05-06 22:24 | 55.82520 | -4.51644 | 3497 ft | 247 kts | 223° |
| 2026-05-06 22:24 | 55.81297 | -4.53817 | 4535 ft | 251 kts | 224° |
| 2026-05-06 22:24 | 55.80062 | -4.56008 | 5383 ft | 254 kts | 224° |
| 2026-05-06 22:25 | 55.78794 | -4.58255 | 5867 ft | 257 kts | 224° |
| 2026-05-06 22:25 | 55.77536 | -4.60477 | 5993 ft | 258 kts | 224° |
| 2026-05-06 22:25 | 55.76253 | -4.62740 | 5995 ft | 259 kts | 224° |
| 2026-05-06 22:25 | 55.74972 | -4.64997 | 5993 ft | 260 kts | 224° |
| 2026-05-06 22:26 | 55.73687 | -4.67257 | 5990 ft | 260 kts | 224° |
| 2026-05-06 22:26 | 55.72387 | -4.69512 | 5987 ft | 260 kts | 224° |
| 2026-05-06 22:26 | 55.71086 | -4.71725 | 5970 ft | 260 kts | 223° |
| 2026-05-06 22:26 | 55.69743 | -4.73821 | 5970 ft | 259 kts | 216° |
| 2026-05-06 22:27 | 55.68153 | -4.75362 | 5970 ft | 259 kts | 200° |
| 2026-05-06 22:27 | 55.66405 | -4.76001 | 6027 ft | 261 kts | 185° |
| 2026-05-06 22:27 | 55.64575 | -4.76125 | 6644 ft | 266 kts | 182° |
| 2026-05-06 22:27 | 55.62701 | -4.76165 | 7721 ft | 270 kts | 182° |
| 2026-05-06 22:28 | 55.60805 | -4.76203 | 8814 ft | 275 kts | 182° |
| 2026-05-06 22:28 | 55.58853 | -4.76275 | 9891 ft | 282 kts | 184° |
| 2026-05-06 22:28 | 55.56861 | -4.76395 | 10637 ft | 299 kts | 184° |
| 2026-05-06 22:28 | 55.54711 | -4.76559 | 11350 ft | 315 kts | 185° |
| 2026-05-06 22:29 | 55.52497 | -4.76745 | 12321 ft | 322 kts | 186° |
| 2026-05-06 22:29 | 55.50293 | -4.77382 | 13369 ft | 324 kts | 196° |
| 2026-05-06 22:29 | 55.48087 | -4.78442 | 14355 ft | 328 kts | 200° |
| 2026-05-06 22:29 | 55.45922 | -4.79673 | 15264 ft | 332 kts | 202° |
| 2026-05-06 22:30 | 55.43733 | -4.81034 | 16157 ft | 336 kts | 203° |
| 2026-05-06 22:30 | 55.41525 | -4.82462 | 17038 ft | 340 kts | 204° |
| 2026-05-06 22:30 | 55.39234 | -4.83811 | 17933 ft | 346 kts | 201° |
| 2026-05-06 22:30 | 55.36936 | -4.85081 | 18721 ft | 351 kts | 201° |
| 2026-05-06 22:31 | 55.34576 | -4.86364 | 19471 ft | 355 kts | 200° |
| 2026-05-06 22:31 | 55.32211 | -4.87626 | 20227 ft | 360 kts | 200° |
| 2026-05-06 22:31 | 55.29787 | -4.88905 | 20987 ft | 364 kts | 200° |
| 2026-05-06 22:31 | 55.27355 | -4.90178 | 21641 ft | 368 kts | 200° |
| 2026-05-06 22:32 | 55.24917 | -4.91449 | 21946 ft | 367 kts | 200° |
| 2026-05-06 22:32 | 55.22533 | -4.92679 | 21991 ft | 349 kts | 200° |
| 2026-05-06 22:32 | 55.20232 | -4.93861 | 22000 ft | 335 kts | 200° |
| 2026-05-06 22:32 | 55.18011 | -4.95010 | 21990 ft | 333 kts | 200° |
| 2026-05-06 22:33 | 55.15803 | -4.96160 | 21994 ft | 334 kts | 200° |
| 2026-05-06 22:33 | 55.13548 | -4.97337 | 21991 ft | 334 kts | 200° |
| 2026-05-06 22:33 | 55.11340 | -4.98487 | 21991 ft | 335 kts | 200° |
| 2026-05-06 22:33 | 55.09084 | -4.99660 | 21989 ft | 335 kts | 200° |
| 2026-05-06 22:34 | 55.06878 | -5.00804 | 21992 ft | 335 kts | 200° |
| 2026-05-06 22:34 | 55.04633 | -5.01965 | 21991 ft | 335 kts | 200° |
| 2026-05-06 22:34 | 55.02399 | -5.03118 | 21994 ft | 335 kts | 200° |
| 2026-05-06 22:34 | 55.00164 | -5.04271 | 21992 ft | 335 kts | 200° |
| 2026-05-06 22:35 | 54.97919 | -5.05426 | 21990 ft | 335 kts | 200° |
| 2026-05-06 22:35 | 54.95688 | -5.06574 | 21993 ft | 335 kts | 200° |
| 2026-05-06 22:35 | 54.93441 | -5.07728 | 21994 ft | 335 kts | 200° |
| 2026-05-06 22:35 | 54.91202 | -5.08877 | 21993 ft | 336 kts | 200° |
| 2026-05-06 22:36 | 54.88977 | -5.10018 | 21992 ft | 336 kts | 200° |
| 2026-05-06 22:36 | 54.86742 | -5.11162 | 21992 ft | 336 kts | 200° |
| 2026-05-06 22:36 | 54.84490 | -5.12313 | 21992 ft | 336 kts | 200° |
| 2026-05-06 22:36 | 54.82249 | -5.13458 | 21991 ft | 336 kts | 200° |
| 2026-05-06 22:37 | 54.80019 | -5.14596 | 21991 ft | 336 kts | 200° |
| 2026-05-06 22:37 | 54.77783 | -5.15735 | 21994 ft | 336 kts | 200° |
| 2026-05-06 22:37 | 54.75531 | -5.16882 | 21991 ft | 336 kts | 200° |
| 2026-05-06 22:37 | 54.73306 | -5.18014 | 21987 ft | 336 kts | 200° |
| 2026-05-06 22:38 | 54.71036 | -5.19167 | 21990 ft | 336 kts | 200° |
| 2026-05-06 22:38 | 54.68797 | -5.20302 | 21987 ft | 336 kts | 200° |
| 2026-05-06 22:38 | 54.66571 | -5.21431 | 21992 ft | 336 kts | 200° |
| 2026-05-06 22:38 | 54.64320 | -5.22570 | 21989 ft | 336 kts | 200° |
| 2026-05-06 22:39 | 54.62055 | -5.23715 | 21991 ft | 336 kts | 200° |
| 2026-05-06 22:39 | 54.59810 | -5.24849 | 21988 ft | 336 kts | 200° |
| 2026-05-06 22:39 | 54.57571 | -5.25978 | 21991 ft | 336 kts | 200° |
| 2026-05-06 22:39 | 54.55316 | -5.27114 | 21994 ft | 337 kts | 200° |
| 2026-05-06 22:40 | 54.53087 | -5.28236 | 21994 ft | 337 kts | 199° |
| 2026-05-06 22:40 | 54.50826 | -5.29372 | 21993 ft | 337 kts | 200° |
| 2026-05-06 22:40 | 54.48668 | -5.30765 | 21994 ft | 334 kts | 206° |
| 2026-05-06 22:40 | 54.46530 | -5.32389 | 21993 ft | 334 kts | 208° |
| 2026-05-06 22:41 | 54.42359 | -5.35832 | 21991 ft | 334 kts | 209° |
| 2026-05-06 22:41 | 54.40264 | -5.37619 | 21990 ft | 334 kts | 210° |
| 2026-05-06 22:41 | 54.38183 | -5.39400 | 21996 ft | 334 kts | 209° |
| 2026-05-06 22:42 | 54.36117 | -5.41162 | 21937 ft | 334 kts | 209° |
| 2026-05-06 22:42 | 54.34050 | -5.42917 | 21578 ft | 331 kts | 209° |
| 2026-05-06 22:42 | 54.31990 | -5.44654 | 21285 ft | 325 kts | 209° |
| 2026-05-06 22:42 | 54.29978 | -5.46348 | 20816 ft | 326 kts | 209° |
| 2026-05-06 22:43 | 54.27946 | -5.48055 | 20370 ft | 325 kts | 209° |
| 2026-05-06 22:43 | 54.25891 | -5.49779 | 19928 ft | 325 kts | 209° |
| 2026-05-06 22:43 | 54.23867 | -5.51474 | 19497 ft | 324 kts | 209° |
| 2026-05-06 22:43 | 54.21857 | -5.53156 | 19184 ft | 327 kts | 209° |
| 2026-05-06 22:44 | 54.19794 | -5.54883 | 18940 ft | 332 kts | 209° |
| 2026-05-06 22:44 | 54.17709 | -5.56625 | 18693 ft | 332 kts | 209° |
| 2026-05-06 22:44 | 54.15635 | -5.58353 | 18455 ft | 331 kts | 209° |
| 2026-05-06 22:44 | 54.13576 | -5.60067 | 18191 ft | 330 kts | 209° |
| 2026-05-06 22:45 | 54.11529 | -5.61781 | 17940 ft | 330 kts | 211° |
| 2026-05-06 22:45 | 54.09629 | -5.63920 | 17659 ft | 325 kts | 223° |
| 2026-05-06 22:45 | 54.07991 | -5.66513 | 17386 ft | 320 kts | 227° |
| 2026-05-06 22:45 | 54.06436 | -5.69252 | 17120 ft | 318 kts | 229° |
| 2026-05-06 22:46 | 54.04939 | -5.71975 | 16850 ft | 317 kts | 230° |
| 2026-05-06 22:46 | 54.03441 | -5.74732 | 16582 ft | 316 kts | 230° |
| 2026-05-06 22:46 | 54.01951 | -5.77483 | 16325 ft | 315 kts | 230° |
| 2026-05-06 22:46 | 54.00486 | -5.80193 | 16081 ft | 314 kts | 230° |
| 2026-05-06 22:47 | 53.99000 | -5.82941 | 15808 ft | 312 kts | 230° |
| 2026-05-06 22:47 | 53.97536 | -5.85647 | 15554 ft | 311 kts | 230° |
| 2026-05-06 22:47 | 53.96073 | -5.88349 | 15300 ft | 310 kts | 230° |
| 2026-05-06 22:47 | 53.94608 | -5.91053 | 15049 ft | 309 kts | 230° |
| 2026-05-06 22:48 | 53.93171 | -5.93701 | 14804 ft | 306 kts | 230° |
| 2026-05-06 22:48 | 53.91731 | -5.96350 | 14539 ft | 299 kts | 230° |
| 2026-05-06 22:48 | 53.90333 | -5.98923 | 14150 ft | 299 kts | 230° |
| 2026-05-06 22:48 | 53.88921 | -6.01519 | 13741 ft | 298 kts | 230° |
| 2026-05-06 22:49 | 53.87524 | -6.04084 | 13318 ft | 297 kts | 230° |
| 2026-05-06 22:49 | 53.86125 | -6.06649 | 12909 ft | 295 kts | 229° |
| 2026-05-06 22:49 | 53.84730 | -6.09204 | 12508 ft | 294 kts | 229° |
| 2026-05-06 22:49 | 53.83346 | -6.11737 | 12108 ft | 293 kts | 229° |
| 2026-05-06 22:50 | 53.81970 | -6.14253 | 11696 ft | 292 kts | 229° |
| 2026-05-06 22:50 | 53.80591 | -6.16771 | 11287 ft | 292 kts | 229° |
| 2026-05-06 22:50 | 53.79209 | -6.19293 | 10879 ft | 291 kts | 229° |
| 2026-05-06 22:50 | 53.77841 | -6.21786 | 10476 ft | 290 kts | 229° |
| 2026-05-06 22:51 | 53.76470 | -6.24281 | 10132 ft | 287 kts | 229° |
| 2026-05-06 22:51 | 53.75119 | -6.26736 | 9794 ft | 282 kts | 229° |
| 2026-05-06 22:51 | 53.73778 | -6.29173 | 9387 ft | 281 kts | 229° |
| 2026-05-06 22:51 | 53.72461 | -6.31562 | 9065 ft | 276 kts | 229° |
| 2026-05-06 22:52 | 53.71187 | -6.33868 | 8931 ft | 263 kts | 229° |
| 2026-05-06 22:52 | 53.69978 | -6.36056 | 8800 ft | 251 kts | 229° |
| 2026-05-06 22:52 | 53.68791 | -6.38205 | 8538 ft | 245 kts | 229° |
| 2026-05-06 22:52 | 53.67629 | -6.40308 | 8227 ft | 244 kts | 229° |
| 2026-05-06 22:53 | 53.66517 | -6.42444 | 8011 ft | 242 kts | 237° |
| 2026-05-06 22:53 | 53.65799 | -6.44972 | 7977 ft | 240 kts | 259° |
| 2026-05-06 22:53 | 53.65850 | -6.47740 | 7990 ft | 237 kts | 288° |
| 2026-05-06 22:53 | 53.66531 | -6.50246 | 7991 ft | 237 kts | 300° |
| 2026-05-06 22:54 | 53.67094 | -6.51866 | 7987 ft | 237 kts | 302° |
| 2026-05-06 22:54 | 53.68230 | -6.55016 | 7987 ft | 238 kts | 302° |
| 2026-05-06 22:54 | 53.69087 | -6.57419 | 7988 ft | 240 kts | 301° |
| 2026-05-06 22:54 | 53.69659 | -6.59039 | 7986 ft | 239 kts | 301° |
| 2026-05-06 22:55 | 53.70502 | -6.61436 | 7989 ft | 238 kts | 301° |